Time;durP1;ratioP1;P1;durP2;ratioP2;P2;SDS_P1;SDS_P2;PMS_P1;PMS_P2;Temp;Humidity;BMP_temperature;BMP_pressure;BME280_temperature;BME280_humidity;BME280_pressure;Samples;Min_cycle;Max_cycle;Signal;HPM_P1;HPM_P2
2022/03/07 00:01:41;;;;;;;43.97;20.15;;;;;;;-1.58;59.02;99021.84;5092158;28;20030;-80
2022/03/07 00:04:06;;;;;;;49.28;22.98;;;;;;;-1.57;58.96;99026.19;5110633;28;20471;-80
2022/03/07 00:06:32;;;;;;;67.03;28.05;;;;;;;-1.54;59.17;99032.03;5110763;28;20088;-81
2022/03/07 00:08:57;;;;;;;52.67;23.08;;;;;;;-1.51;59.24;99030.78;5111025;28;20051;-81
2022/03/07 00:11:22;;;;;;;53.22;24.40;;;;;;;-1.51;59.14;99034.31;5111151;28;20027;-81
2022/03/07 00:13:48;;;;;;;70.28;26.90;;;;;;;-1.53;59.01;99025.59;5111518;28;20042;-81
2022/03/07 00:16:14;;;;;;;41.63;20.33;;;;;;;-1.56;59.10;99031.41;5110804;28;20436;-81
2022/03/07 00:18:40;;;;;;;45.58;18.55;;;;;;;-1.56;59.08;99028.69;5111104;28;20111;-81
2022/03/07 00:21:07;;;;;;;39.53;21.13;;;;;;;-1.58;59.06;99024.53;5111332;28;20023;-81
2022/03/07 00:23:33;;;;;;;37.55;19.67;;;;;;;-1.61;59.39;99033.84;5111919;28;20036;-80
2022/03/07 00:25:58;;;;;;;41.58;22.65;;;;;;;-1.65;59.34;99029.91;5112324;28;20035;-83
2022/03/07 00:28:23;;;;;;;35.85;19.65;;;;;;;-1.68;59.62;99035.69;5111395;28;20118;-83
2022/03/07 00:30:49;;;;;;;32.35;17.33;;;;;;;-1.71;59.46;99041.47;5112758;28;20106;-82
2022/03/07 00:33:18;;;;;;;41.58;21.42;;;;;;;-1.77;59.72;99037.75;5111955;28;20028;-83
2022/03/07 00:35:44;;;;;;;39.80;20.23;;;;;;;-1.78;59.77;99038.78;5111498;28;20429;-82
2022/03/07 00:38:09;;;;;;;41.92;21.50;;;;;;;-1.74;60.18;99037.34;5112289;28;20023;-82
2022/03/07 00:40:35;;;;;;;37.60;19.75;;;;;;;-1.72;59.85;99034.44;5111757;28;20104;-82
2022/03/07 00:43:00;;;;;;;40.47;20.95;;;;;;;-1.79;59.80;99034.41;5112409;28;20131;-81
2022/03/07 00:45:26;;;;;;;41.42;20.50;;;;;;;-1.80;60.46;99028.19;5111687;28;20104;-82
2022/03/07 00:47:51;;;;;;;65.00;27.65;;;;;;;-1.74;59.81;99033.81;5112113;28;20039;-82
2022/03/07 00:50:16;;;;;;;44.15;22.35;;;;;;;-1.72;60.05;99029.06;5111512;28;20381;-83
2022/03/07 00:52:42;;;;;;;42.95;21.13;;;;;;;-1.70;60.35;99035.06;5111793;28;20030;-83
2022/03/07 00:55:08;;;;;;;75.45;31.02;;;;;;;-1.70;60.14;99029.69;5111762;28;20035;-83
2022/03/07 00:57:34;;;;;;;47.42;23.27;;;;;;;-1.69;59.95;99024.13;5111799;28;20783;-82
2022/03/07 00:59:59;;;;;;;44.45;22.38;;;;;;;-1.72;60.25;99029.06;5112114;28;20053;-82
2022/03/07 01:02:25;;;;;;;44.42;23.15;;;;;;;-1.82;60.14;99024.88;5112345;28;20024;-83
2022/03/07 01:04:50;;;;;;;43.83;20.88;;;;;;;-1.82;60.43;99027.56;5111681;28;20440;-83
2022/03/07 01:07:16;;;;;;;48.95;23.52;;;;;;;-1.78;60.64;99029.84;5110442;28;20032;-83
2022/03/07 01:09:41;;;;;;;38.42;19.85;;;;;;;-1.78;60.24;99021.78;5112390;28;20024;-81
2022/03/07 01:12:07;;;;;;;38.15;19.80;;;;;;;-1.81;60.32;99018.47;5111296;28;20533;-81
2022/03/07 01:14:33;;;;;;;43.05;21.80;;;;;;;-1.83;60.25;99011.66;5111416;28;20030;-81
2022/03/07 01:16:58;;;;;;;44.47;24.70;;;;;;;-1.81;60.54;99017.66;5111121;28;20388;-81
2022/03/07 01:19:24;;;;;;;38.20;19.33;;;;;;;-1.81;60.17;99020.34;5111097;28;20035;-82
2022/03/07 01:21:51;;;;;;;39.00;21.02;;;;;;;-1.81;60.14;99014.97;5113791;28;20383;-82
2022/03/07 01:24:17;;;;;;;47.85;24.23;;;;;;;-1.86;60.55;99006.69;5115666;28;20015;-83
2022/03/07 01:26:42;;;;;;;44.30;21.77;;;;;;;-1.87;60.55;99016.63;5116253;28;20443;-83
2022/03/07 01:29:08;;;;;;;42.55;22.33;;;;;;;-1.86;60.68;99012.91;5110804;28;20110;-84
2022/03/07 01:31:33;;;;;;;40.08;21.17;;;;;;;-1.82;60.68;99013.31;5111012;28;20016;-83
2022/03/07 01:33:59;;;;;;;41.78;23.42;;;;;;;-1.78;60.47;99013.72;5111586;28;20098;-83
2022/03/07 01:36:24;;;;;;;39.83;21.13;;;;;;;-1.76;60.55;99009.81;5111694;28;20019;-83
2022/03/07 01:38:50;;;;;;;40.40;21.00;;;;;;;-1.78;60.85;99006.50;5112430;28;20023;-84
2022/03/07 01:41:15;;;;;;;40.67;21.15;;;;;;;-1.76;60.70;99001.75;5111760;28;20023;-83
2022/03/07 01:43:41;;;;;;;37.60;19.85;;;;;;;-1.78;60.80;99006.50;5112681;28;20023;-83
2022/03/07 01:46:08;;;;;;;42.65;18.73;;;;;;;-1.81;60.68;98998.84;5112361;28;20023;-83
2022/03/07 01:48:34;;;;;;;37.92;19.85;;;;;;;-1.83;60.95;99008.97;5111533;28;20031;-83
2022/03/07 01:51:00;;;;;;;40.90;20.10;;;;;;;-1.89;60.81;98997.16;5110387;28;20112;-83
2022/03/07 01:53:26;;;;;;;42.78;21.38;;;;;;;-1.96;60.59;99004.38;5111359;28;20853;-83
2022/03/07 01:55:51;;;;;;;36.92;18.35;;;;;;;-2.04;61.02;99000.00;5110689;28;20040;-83
2022/03/07 01:58:17;;;;;;;48.53;25.98;;;;;;;-2.07;60.77;99010.31;5110431;28;20055;-83
2022/03/07 02:00:42;;;;;;;40.35;21.20;;;;;;;-2.03;61.47;99006.19;5110344;28;20507;-83
2022/03/07 02:03:08;;;;;;;36.95;19.05;;;;;;;-2.05;61.17;98994.81;5110995;28;20369;-83
2022/03/07 02:05:34;;;;;;;38.85;20.17;;;;;;;-2.07;60.86;98991.50;5110518;28;20054;-82
2022/03/07 02:08:00;;;;;;;37.40;19.92;;;;;;;-2.10;61.01;98990.88;5110598;28;20106;-83
2022/03/07 02:10:28;;;;;;;39.60;20.20;;;;;;;-2.06;60.94;98996.69;5107560;28;20480;-83
2022/03/07 02:12:54;;;;;;;55.67;28.05;;;;;;;-2.07;60.75;98989.66;5110371;28;20402;-84
2022/03/07 02:15:20;;;;;;;50.63;24.67;;;;;;;-2.05;60.44;98986.75;5107760;28;20084;-83
2022/03/07 02:17:45;;;;;;;33.28;18.48;;;;;;;-2.09;60.37;98989.03;5109893;28;20065;-84
2022/03/07 02:20:12;;;;;;;34.00;18.40;;;;;;;-2.17;60.00;98986.50;5110164;28;20020;-83
2022/03/07 02:22:38;;;;;;;34.30;17.08;;;;;;;-2.19;59.80;98980.50;5109694;28;20027;-83
2022/03/07 02:25:04;;;;;;;33.17;18.02;;;;;;;-2.22;59.29;98981.72;5088388;28;20026;-83
2022/03/07 02:27:29;;;;;;;30.98;16.45;;;;;;;-2.22;59.33;98987.09;5110665;28;20046;-83
2022/03/07 02:29:55;;;;;;;40.45;21.13;;;;;;;-2.23;58.92;98987.31;5110739;28;20034;-83
2022/03/07 02:32:22;;;;;;;46.30;22.52;;;;;;;-2.24;58.86;98983.78;5110686;28;20460;-84
2022/03/07 02:34:48;;;;;;;61.50;26.92;;;;;;;-2.24;58.67;98981.09;5110457;28;20112;-82
2022/03/07 02:37:13;;;;;;;65.95;27.95;;;;;;;-2.26;58.78;98973.25;5110499;28;20425;-83
2022/03/07 02:39:39;;;;;;;55.30;25.35;;;;;;;-2.24;58.63;98970.34;5110296;28;20031;-83
2022/03/07 02:42:05;;;;;;;60.50;26.77;;;;;;;-2.18;58.57;98968.72;5110576;28;20066;-84
2022/03/07 02:44:30;;;;;;;64.10;27.10;;;;;;;-2.16;58.45;98969.34;5110327;28;20027;-83
2022/03/07 02:46:56;;;;;;;49.25;24.23;;;;;;;-2.10;58.38;98973.94;5111536;28;20403;-84
2022/03/07 02:49:21;;;;;;;32.10;17.75;;;;;;;-2.00;58.13;98976.22;5112143;28;20032;-83
2022/03/07 02:51:46;;;;;;;31.85;17.42;;;;;;;-1.91;58.07;98974.19;5111588;28;20027;-84
2022/03/07 02:54:12;;;;;;;28.60;16.83;;;;;;;-1.89;58.28;98975.66;5110857;28;20602;-82
2022/03/07 02:56:37;;;;;;;30.35;17.27;;;;;;;-1.92;57.44;98976.06;5110211;28;20111;-81
2022/03/07 02:59:03;;;;;;;30.15;17.00;;;;;;;-1.91;57.48;98977.72;5110299;28;20492;-81
2022/03/07 03:01:29;;;;;;;27.85;15.45;;;;;;;-1.92;57.02;98980.59;5089958;28;20066;-79
2022/03/07 03:03:54;;;;;;;27.63;16.35;;;;;;;-1.95;57.55;98976.47;5110099;28;20055;-79
2022/03/07 03:06:20;;;;;;;29.90;16.10;;;;;;;-1.95;57.56;98969.22;5110431;28;20023;-79
2022/03/07 03:08:45;;;;;;;28.42;16.90;;;;;;;-1.98;57.12;98972.31;5110188;28;20391;-78
2022/03/07 03:11:11;;;;;;;28.52;16.90;;;;;;;-2.05;57.46;98966.09;5109355;28;20028;-78
2022/03/07 03:13:37;;;;;;;30.98;16.83;;;;;;;-2.08;57.55;98973.72;5091379;28;20035;-80
2022/03/07 03:16:03;;;;;;;36.15;19.08;;;;;;;-2.16;56.82;98970.16;5109088;28;20499;-79
2022/03/07 03:18:28;;;;;;;32.70;18.00;;;;;;;-2.25;57.16;98966.03;5109143;28;20028;-82
2022/03/07 03:20:54;;;;;;;33.28;18.60;;;;;;;-2.26;57.46;98970.56;5109060;28;20597;-81
2022/03/07 03:23:19;;;;;;;32.47;17.63;;;;;;;-2.28;57.54;98977.97;5109433;28;20016;-79
2022/03/07 03:25:46;;;;;;;27.70;15.70;;;;;;;-2.34;57.93;98967.22;5108873;28;20479;-82
2022/03/07 03:28:12;;;;;;;31.95;17.02;;;;;;;-2.41;58.07;98970.69;5109384;28;20065;-82
2022/03/07 03:30:37;;;;;;;29.85;16.90;;;;;;;-2.38;58.17;98957.88;5112238;28;20031;-81
2022/03/07 03:33:03;;;;;;;30.67;16.40;;;;;;;-2.38;58.11;98956.03;5094724;28;20035;-81
2022/03/07 03:35:29;;;;;;;33.97;17.27;;;;;;;-2.44;57.99;98954.13;5112520;28;20115;-80
2022/03/07 03:37:55;;;;;;;32.63;18.10;;;;;;;-2.45;58.21;98950.63;5112198;28;20466;-80
2022/03/07 03:40:20;;;;;;;34.17;18.23;;;;;;;-2.51;58.01;98954.09;5111279;28;20019;-81
2022/03/07 03:42:46;;;;;;;35.63;18.65;;;;;;;-2.56;58.71;98951.19;5111882;28;20043;-81
2022/03/07 03:45:13;;;;;;;34.33;18.48;;;;;;;-2.55;58.87;98947.47;5111656;28;20027;-80
2022/03/07 03:47:41;;;;;;;34.88;18.13;;;;;;;-2.54;58.58;98951.81;5092506;28;20499;-81
2022/03/07 03:50:10;;;;;;;31.23;17.25;;;;;;;-2.55;58.71;98952.84;5112638;28;20053;-81
2022/03/07 03:52:36;;;;;;;30.77;16.73;;;;;;;-2.57;58.63;98949.53;5113357;28;20034;-81
2022/03/07 03:55:03;;;;;;;28.35;15.43;;;;;;;-2.60;58.99;98949.91;5093750;28;20066;-81
2022/03/07 03:57:29;;;;;;;27.80;15.75;;;;;;;-2.60;58.88;98948.06;5114061;28;20024;-81
2022/03/07 03:59:55;;;;;;;30.70;16.92;;;;;;;-2.59;59.13;98952.41;5094799;28;20039;-81
2022/03/07 04:02:21;;;;;;;31.67;18.40;;;;;;;-2.61;59.08;98953.63;5113931;28;20053;-81
2022/03/07 04:04:46;;;;;;;28.40;16.30;;;;;;;-2.60;59.03;98950.75;5114139;28;20102;-81
2022/03/07 04:07:12;;;;;;;28.20;16.20;;;;;;;-2.60;59.09;98963.34;5114080;28;20035;-81
2022/03/07 04:09:37;;;;;;;29.95;16.15;;;;;;;-2.59;59.19;98952.41;5113474;28;20490;-81
2022/03/07 04:12:03;;;;;;;27.67;15.82;;;;;;;-2.56;59.14;98952.03;5113462;28;20401;-81
2022/03/07 04:14:28;;;;;;;28.10;16.17;;;;;;;-2.52;58.93;98955.13;5095255;28;20434;-81
2022/03/07 04:16:54;;;;;;;31.42;16.52;;;;;;;-2.50;58.72;98955.75;5113537;28;20429;-81
2022/03/07 04:19:20;;;;;;;24.27;15.13;;;;;;;-2.46;58.96;98948.97;5113466;28;20023;-81
2022/03/07 04:21:45;;;;;;;29.02;14.77;;;;;;;-2.44;58.89;98944.22;5113174;28;20066;-80
2022/03/07 04:24:12;;;;;;;29.00;16.40;;;;;;;-2.44;59.05;98941.53;5113705;28;20030;-81
2022/03/07 04:26:39;;;;;;;28.35;17.15;;;;;;;-2.41;58.74;98942.97;5093992;28;20036;-81
2022/03/07 04:29:07;;;;;;;60.67;25.92;;;;;;;-2.40;59.03;98953.53;5113985;28;20023;-81
2022/03/07 04:31:43;;;;;;;65.43;26.83;;;;;;;-2.42;58.72;98954.75;5112971;28;20064;-81
2022/03/07 04:34:10;;;;;;;54.00;21.27;;;;;;;-2.41;58.56;98953.72;5113391;28;20027;-81
2022/03/07 04:36:38;;;;;;;66.82;32.78;;;;;;;-2.45;58.71;98945.25;5113682;28;20051;-81
2022/03/07 04:39:05;;;;;;;48.22;25.63;;;;;;;-2.44;58.04;98944.22;5113089;28;20089;-81
2022/03/07 04:41:31;;;;;;;31.45;18.83;;;;;;;-2.38;58.52;98947.16;5112519;28;20058;-81
2022/03/07 04:43:56;;;;;;;32.85;18.45;;;;;;;-2.43;58.38;98947.72;5113131;28;20027;-81
2022/03/07 04:46:22;;;;;;;28.75;15.45;;;;;;;-2.41;58.93;98945.66;5113509;28;20028;-81
2022/03/07 04:48:47;;;;;;;40.10;20.90;;;;;;;-2.40;58.82;98941.94;5113262;28;20177;-81
2022/03/07 04:51:14;;;;;;;31.27;18.83;;;;;;;-2.34;58.58;98934.97;5112767;28;20027;-81
2022/03/07 04:53:39;;;;;;;27.35;15.50;;;;;;;-2.36;58.51;98937.84;5113077;28;20045;-81
2022/03/07 04:56:05;;;;;;;25.65;15.45;;;;;;;-2.34;58.68;98935.78;5112774;28;20464;-80
2022/03/07 04:58:31;;;;;;;26.58;14.95;;;;;;;-2.38;58.21;98929.16;5112437;28;20134;-80
2022/03/07 05:00:56;;;;;;;26.30;16.20;;;;;;;-2.35;58.50;98938.69;5111950;28;20035;-80
2022/03/07 05:03:22;;;;;;;30.52;19.33;;;;;;;-2.31;58.66;98942.63;5091264;28;20024;-80
2022/03/07 05:05:48;;;;;;;23.92;14.40;;;;;;;-2.29;58.72;98946.75;5112096;28;20032;-80
2022/03/07 05:08:14;;;;;;;24.35;15.05;;;;;;;-2.28;58.58;98956.47;5112091;28;20020;-80
2022/03/07 05:10:40;;;;;;;22.35;13.63;;;;;;;-2.27;58.45;98949.28;5111445;28;20035;-80
2022/03/07 05:13:05;;;;;;;25.60;15.45;;;;;;;-2.26;58.78;98954.44;5111956;28;20399;-81
2022/03/07 05:15:30;;;;;;;24.15;14.05;;;;;;;-2.17;58.40;98949.69;5111657;28;20032;-80
2022/03/07 05:17:56;;;;;;;23.77;13.63;;;;;;;-2.17;58.21;98948.88;5112396;28;20031;-81
2022/03/07 05:20:23;;;;;;;23.10;13.70;;;;;;;-2.18;58.33;98957.97;5111869;28;20095;-80
2022/03/07 05:22:49;;;;;;;25.20;12.65;;;;;;;-2.18;58.25;98966.84;5111991;28;20479;-81
2022/03/07 05:25:16;;;;;;;23.88;13.60;;;;;;;-2.22;58.30;98957.53;5111897;28;20027;-81
2022/03/07 05:27:41;;;;;;;20.27;13.27;;;;;;;-2.21;58.36;98961.88;5112087;28;20045;-81
2022/03/07 05:30:09;;;;;;;22.13;12.65;;;;;;;-2.16;58.43;98961.28;5111797;28;20027;-79
2022/03/07 05:32:35;;;;;;;33.47;16.00;;;;;;;-2.20;58.26;98952.78;5112036;28;20061;-81
2022/03/07 05:35:00;;;;;;;30.40;15.07;;;;;;;-2.22;58.34;98962.09;5112021;28;20036;-81
2022/03/07 05:37:26;;;;;;;34.80;15.57;;;;;;;-2.23;58.17;98968.50;5112014;28;20027;-81
2022/03/07 05:39:51;;;;;;;30.45;15.63;;;;;;;-2.26;58.52;98972.44;5111443;28;20027;-81
2022/03/07 05:42:17;;;;;;;29.40;15.27;;;;;;;-2.26;58.53;98975.09;5111821;28;20099;-81
2022/03/07 05:44:42;;;;;;;27.48;14.10;;;;;;;-2.29;58.27;98972.81;5111605;28;20092;-81
2022/03/07 05:47:08;;;;;;;32.30;16.20;;;;;;;-2.33;58.43;98971.56;5111414;28;20042;-81
2022/03/07 05:49:34;;;;;;;23.92;14.05;;;;;;;-2.33;58.47;98979.63;5111728;28;20061;-80
2022/03/07 05:51:59;;;;;;;21.77;13.70;;;;;;;-2.31;58.23;98977.56;5110926;28;20110;-80
2022/03/07 05:54:25;;;;;;;22.15;12.98;;;;;;;-2.28;58.38;98977.16;5111774;28;20394;-81
2022/03/07 05:56:50;;;;;;;25.30;14.07;;;;;;;-2.28;58.39;98977.16;5111271;28;20034;-80
2022/03/07 05:59:16;;;;;;;41.50;22.33;;;;;;;-2.35;57.86;98984.34;5111960;28;20043;-81
2022/03/07 06:01:41;;;;;;;26.77;15.55;;;;;;;-2.37;58.03;98975.66;5111104;28;20039;-81
2022/03/07 06:04:08;;;;;;;24.80;13.77;;;;;;;-2.36;58.51;98986.19;5111671;28;20042;-81
2022/03/07 06:06:34;;;;;;;25.42;14.52;;;;;;;-2.37;58.04;98992.59;5111723;28;20053;-81
2022/03/07 06:08:59;;;;;;;41.60;21.55;;;;;;;-2.41;58.14;98978.75;5112010;28;20517;-80
2022/03/07 06:11:25;;;;;;;59.75;25.02;;;;;;;-2.44;58.12;98987.19;5112076;28;20102;-81
2022/03/07 06:13:50;;;;;;;41.42;19.63;;;;;;;-2.45;58.58;98985.53;5111555;28;20032;-81
2022/03/07 06:16:15;;;;;;;29.92;17.08;;;;;;;-2.36;58.65;98980.81;5091909;28;20032;-81
2022/03/07 06:18:41;;;;;;;44.72;18.58;;;;;;;-2.27;58.56;98984.19;5111344;28;20023;-81
2022/03/07 06:21:08;;;;;;;29.08;14.93;;;;;;;-2.24;58.47;98989.16;5111378;28;20035;-81
2022/03/07 06:23:33;;;;;;;24.15;12.90;;;;;;;-2.24;58.05;98989.16;5111340;28;20501;-81
2022/03/07 06:25:59;;;;;;;22.67;13.32;;;;;;;-2.25;58.16;98984.84;5111048;28;20024;-81
2022/03/07 06:28:24;;;;;;;24.92;14.15;;;;;;;-2.23;58.11;98990.00;5111087;28;20038;-81
2022/03/07 06:30:49;;;;;;;21.17;13.40;;;;;;;-2.21;58.26;98983.38;5110075;28;20052;-81
2022/03/07 06:33:16;;;;;;;44.00;19.25;;;;;;;-2.22;58.25;98986.28;5110307;28;20062;-81
2022/03/07 06:35:42;;;;;;;34.58;16.48;;;;;;;-2.19;58.16;98988.56;5110620;28;20077;-80
2022/03/07 06:38:07;;;;;;;81.03;28.50;;;;;;;-2.17;58.30;98991.88;5106187;28;20042;-83
2022/03/07 06:40:33;;;;;;;62.78;23.80;;;;;;;-2.15;58.44;98981.75;5108558;28;20074;-80
2022/03/07 06:43:00;;;;;;;35.58;15.48;;;;;;;-2.10;58.21;98990.88;5110420;28;20062;-81
2022/03/07 06:45:27;;;;;;;38.25;17.10;;;;;;;-2.03;58.11;98990.06;5109952;28;20053;-82
2022/03/07 06:47:52;;;;;;;47.60;19.50;;;;;;;-1.99;58.19;98991.34;5110072;28;20084;-82
2022/03/07 06:50:18;;;;;;;28.48;15.90;;;;;;;-1.91;57.93;98987.63;5091260;28;20476;-83
2022/03/07 06:52:44;;;;;;;27.00;15.25;;;;;;;-1.89;57.82;98988.25;5110050;28;20038;-81
2022/03/07 06:55:10;;;;;;;28.70;14.68;;;;;;;-1.85;58.24;98986.81;5109867;28;20063;-81
2022/03/07 06:57:35;;;;;;;71.38;23.33;;;;;;;-1.80;58.05;98990.56;5109453;28;20050;-81
2022/03/07 07:00:02;;;;;;;61.33;23.10;;;;;;;-1.72;58.14;98988.72;5109748;28;20432;-81
2022/03/07 07:02:27;;;;;;;32.25;15.13;;;;;;;-1.64;58.12;98996.59;5108802;28;20079;-82
2022/03/07 07:04:54;;;;;;;25.08;13.90;;;;;;;-1.56;57.85;98993.72;5111577;28;20051;-83
2022/03/07 07:07:19;;;;;;;25.58;13.80;;;;;;;-1.53;57.40;98990.63;5093319;28;20028;-84
2022/03/07 07:09:46;;;;;;;23.17;13.90;;;;;;;-1.44;57.06;98993.13;5114695;28;20085;-85
2022/03/07 07:12:11;;;;;;;61.05;23.67;;;;;;;-1.39;57.48;98987.94;5113527;28;20519;-83
2022/03/07 07:14:37;;;;;;;45.65;19.73;;;;;;;-1.39;56.76;98990.63;5113919;28;20034;-79
2022/03/07 07:17:02;;;;;;;26.25;13.95;;;;;;;-1.33;56.80;98991.69;5113072;28;20024;-82
2022/03/07 07:19:28;;;;;;;21.95;12.35;;;;;;;-1.29;56.83;98984.88;5111307;28;20016;-83
2022/03/07 07:21:53;;;;;;;21.02;12.27;;;;;;;-1.25;56.57;98981.56;5091861;28;20042;-83
2022/03/07 07:24:19;;;;;;;26.35;14.48;;;;;;;-1.18;56.73;98980.72;5113402;27;20039;-83
2022/03/07 07:26:44;;;;;;;25.08;13.13;;;;;;;-1.10;56.12;98980.53;5112267;28;20060;-83
2022/03/07 07:29:10;;;;;;;25.73;13.40;;;;;;;-1.11;56.58;98984.25;5116681;27;20392;-83
2022/03/07 07:31:35;;;;;;;18.20;11.15;;;;;;;-1.05;55.96;98992.31;5107579;27;20042;-80
2022/03/07 07:34:00;;;;;;;19.50;11.82;;;;;;;-1.03;55.44;98997.53;5109299;28;20023;-77
2022/03/07 07:36:26;;;;;;;26.25;12.80;;;;;;;-0.95;55.94;98994.59;5111151;28;20544;-78
2022/03/07 07:38:51;;;;;;;26.05;13.25;;;;;;;-0.88;55.06;99005.38;5111106;28;20031;-82
2022/03/07 07:41:16;;;;;;;26.17;13.43;;;;;;;-0.83;55.01;99002.91;5111059;28;20035;-80
2022/03/07 07:43:42;;;;;;;23.30;13.27;;;;;;;-0.70;55.65;98993.97;5108925;28;20796;-80
2022/03/07 07:46:07;;;;;;;49.80;22.35;;;;;;;-0.62;55.35;99004.53;5115484;27;20116;-82
2022/03/07 07:48:33;;;;;;;26.48;14.50;;;;;;;-0.48;54.90;99007.19;5112892;27;20028;-85
2022/03/07 07:50:58;;;;;;;22.60;12.60;;;;;;;-0.45;53.90;98990.59;5109833;28;20103;-78
2022/03/07 07:53:23;;;;;;;24.98;14.07;;;;;;;-0.34;55.10;98995.34;5112625;27;20460;-78
2022/03/07 07:55:49;;;;;;;21.83;12.88;;;;;;;-0.35;53.74;98991.00;5114085;27;20084;-79
2022/03/07 07:58:14;;;;;;;25.60;14.15;;;;;;;-0.37;54.24;98984.97;5110599;28;20051;-82
2022/03/07 08:00:40;;;;;;;31.98;15.38;;;;;;;-0.26;53.08;98977.28;5088736;28;20096;-82
2022/03/07 08:03:05;;;;;;;20.77;11.98;;;;;;;-0.23;53.18;98985.75;5094073;27;20060;-82
2022/03/07 08:05:31;;;;;;;20.73;12.20;;;;;;;-0.21;52.79;98990.94;5111139;28;20032;-83
2022/03/07 08:07:56;;;;;;;18.25;10.68;;;;;;;-0.23;52.03;98980.38;5111923;28;20047;-84
2022/03/07 08:10:22;;;;;;;16.38;10.80;;;;;;;-0.23;52.53;98977.66;5111443;28;20099;-83
2022/03/07 08:12:47;;;;;;;19.02;11.18;;;;;;;-0.14;52.62;98988.22;5115297;27;20031;-81
2022/03/07 08:15:13;;;;;;;22.75;11.57;;;;;;;-0.11;52.00;98985.09;5111124;28;20028;-78
2022/03/07 08:17:43;;;;;;;21.77;11.23;;;;;;;-0.05;51.31;98978.88;5112011;27;20527;-83
2022/03/07 08:20:08;;;;;;;;;;;;;;;0.07;52.08;98982.53;5111757;28;20023;-80
2022/03/07 08:22:34;;;;;;;29.20;14.00;;;;;;;0.25;52.03;98989.91;5110130;28;20395;-81
2022/03/07 08:24:59;;;;;;;23.15;11.43;;;;;;;0.41;50.83;98987.75;5112177;27;20032;-81
2022/03/07 08:27:25;;;;;;;20.98;11.27;;;;;;;0.48;50.63;98991.25;5114954;27;20058;-81
2022/03/07 08:29:50;;;;;;;21.20;11.20;;;;;;;0.58;49.96;98993.47;5112056;28;20039;-83
2022/03/07 08:32:15;;;;;;;28.65;13.45;;;;;;;0.68;50.86;98985.72;5110656;28;20732;-83
2022/03/07 08:34:41;;;;;;;24.23;11.07;;;;;;;0.78;50.22;98987.09;5112477;27;20032;-84
2022/03/07 08:37:06;;;;;;;15.57;8.30;;;;;;;0.78;49.56;98985.22;5111781;28;20442;-82
2022/03/07 08:39:31;;;;;;;12.98;7.53;;;;;;;0.80;48.85;98993.94;5110956;28;20039;-84
2022/03/07 08:41:57;;;;;;;12.38;6.95;;;;;;;0.77;48.69;98986.25;5108950;28;20024;-85
2022/03/07 08:44:22;;;;;;;17.73;10.38;;;;;;;0.73;48.32;98985.03;5109285;28;20050;-85
2022/03/07 08:46:48;;;;;;;13.27;7.82;;;;;;;0.70;48.52;98986.31;5110777;28;20069;-79
2022/03/07 08:49:13;;;;;;;19.48;12.60;;;;;;;0.83;48.29;98981.84;5112391;28;20460;-81
2022/03/07 08:51:40;;;;;;;13.80;8.02;;;;;;;0.92;47.56;98988.63;5111096;28;20024;-81
2022/03/07 08:54:06;;;;;;;17.00;7.75;;;;;;;1.01;46.26;98992.72;5112319;28;20476;-82
2022/03/07 08:56:31;;;;;;;10.55;6.00;;;;;;;1.06;46.64;98988.53;5114024;28;20059;-82
2022/03/07 08:58:57;;;;;;;14.60;8.90;;;;;;;1.17;47.28;98979.72;5113892;27;20070;-81
2022/03/07 09:01:24;;;;;;;14.48;8.60;;;;;;;1.35;47.63;98984.34;5111388;28;20035;-80
2022/03/07 09:03:49;;;;;;;12.15;6.60;;;;;;;1.48;47.36;98980.66;5112958;28;20036;-80
2022/03/07 09:06:15;;;;;;;10.98;7.00;;;;;;;1.55;47.10;98988.69;5112125;28;20054;-81
2022/03/07 09:08:40;;;;;;;14.23;7.03;;;;;;;1.54;46.70;98974.38;5111426;28;20019;-85
2022/03/07 09:11:06;;;;;;;14.55;8.43;;;;;;;1.51;47.21;98982.06;5111936;28;20034;-82
2022/03/07 09:13:31;;;;;;;13.23;7.28;;;;;;;1.50;46.36;98978.56;5112749;28;20035;-84
2022/03/07 09:15:56;;;;;;;10.63;6.45;;;;;;;1.41;45.96;98982.59;5112033;28;20102;-81
2022/03/07 09:18:23;;;;;;;12.35;7.30;;;;;;;1.33;46.04;98976.44;5112072;28;20030;-82
2022/03/07 09:20:48;;;;;;;11.30;7.05;;;;;;;1.27;45.44;98974.63;5112753;28;20024;-84
2022/03/07 09:23:14;;;;;;;11.07;6.78;;;;;;;1.08;45.65;98979.16;5106200;27;20081;-82
2022/03/07 09:25:39;;;;;;;12.63;8.07;;;;;;;1.03;46.38;98973.59;5109037;28;20107;-78
2022/03/07 09:28:05;;;;;;;15.70;8.02;;;;;;;1.12;46.75;98976.84;5087836;28;20380;-79
2022/03/07 09:30:32;;;;;;;10.40;5.88;;;;;;;1.13;46.45;98983.91;5107260;28;20027;-84
2022/03/07 09:32:58;;;;;;;10.15;6.40;;;;;;;1.21;45.87;98978.22;5109192;27;20030;-82
2022/03/07 09:35:24;;;;;;;11.35;6.60;;;;;;;1.18;46.44;98976.78;5109220;28;20035;-81
2022/03/07 09:37:50;;;;;;;14.90;7.72;;;;;;;1.22;45.61;98970.94;5108902;28;20027;-77
2022/03/07 09:40:15;;;;;;;10.88;5.93;;;;;;;1.21;46.24;98980.09;5110255;28;20406;-80
2022/03/07 09:42:41;;;;;;;11.50;6.35;;;;;;;1.17;45.96;98972.44;5089260;28;20020;-80
2022/03/07 09:45:09;;;;;;;10.45;6.50;;;;;;;1.16;46.12;98965.38;5105505;28;20032;-84
2022/03/07 09:47:38;;;;;;;11.88;6.32;;;;;;;1.08;46.68;98967.53;5110322;28;20104;-84
2022/03/07 09:50:05;;;;;;;53.50;16.03;;;;;;;1.04;46.47;98970.69;5108729;28;20023;-82
2022/03/07 09:52:32;;;;;;;133.45;31.90;;;;;;;1.23;46.70;98957.19;5110597;27;20284;-84
2022/03/07 09:54:58;;;;;;;14.30;6.03;;;;;;;1.41;46.80;98967.22;5113237;27;20036;-83
2022/03/07 09:57:24;;;;;;;16.75;7.60;;;;;;;1.59;46.82;98965.56;5110416;28;20023;-81
2022/03/07 09:59:49;;;;;;;49.28;20.92;;;;;;;1.88;46.94;98952.31;5109241;28;20096;-80
2022/03/07 10:02:22;;;;;;;17.77;8.73;;;;;;;2.12;45.75;98957.88;5100204;28;20475;-79
2022/03/07 10:04:48;;;;;;;28.80;13.48;;;;;;;2.24;45.79;98958.75;5097472;28;20043;-84
2022/03/07 10:07:13;;;;;;;38.42;15.05;;;;;;;2.26;46.31;98962.03;5108485;28;20035;-81
2022/03/07 10:09:39;;;;;;;25.35;12.50;;;;;;;2.34;44.92;98959.00;5111712;27;20024;-81
2022/03/07 10:12:05;;;;;;;18.15;9.82;;;;;;;2.33;44.62;98964.66;5108207;28;20030;-79
2022/03/07 10:14:42;;;;;;;15.73;8.65;;;;;;;2.25;45.54;98963.09;5113720;27;20034;-77
2022/03/07 10:17:22;;;;;;;16.02;8.43;;;;;;;2.31;45.64;98950.53;5106306;28;20031;-79
2022/03/07 10:19:49;;;;;;;24.58;11.55;;;;;;;2.40;46.16;98960.00;5109725;27;20031;-81
2022/03/07 10:22:19;;;;;;;18.08;9.38;;;;;;;2.45;45.75;98962.00;5107974;28;20054;-83
2022/03/07 10:24:44;;;;;;;;;;;;;;;2.49;45.46;98958.59;5091507;28;20022;-79
2022/03/07 10:27:10;;;;;;;17.38;9.65;;;;;;;2.42;45.68;98952.47;5108385;28;19915;-81
2022/03/07 10:29:46;;;;;;;61.50;23.08;;;;;;;2.46;46.50;98942.00;5105098;28;20120;-77
2022/03/07 10:32:16;;;;;;;27.17;12.70;;;;;;;2.59;46.75;98947.22;5107512;28;20054;-81
2022/03/07 10:34:42;;;;;;;13.63;7.85;;;;;;;2.68;46.11;98953.91;5110628;28;20058;-77
2022/03/07 10:37:07;;;;;;;41.53;22.48;;;;;;;2.70;46.16;98956.41;5090773;28;20578;-76
2022/03/07 10:39:33;;;;;;;52.63;24.88;;;;;;;2.59;45.28;98957.19;5109333;27;20016;-80
2022/03/07 10:41:58;;;;;;;13.98;8.05;;;;;;;2.44;45.74;98947.66;5111644;28;20031;-77
2022/03/07 10:44:31;;;;;;;26.58;15.25;;;;;;;2.42;45.99;98952.47;5111393;28;20030;-79
2022/03/07 10:47:05;;;;;;;13.65;8.40;;;;;;;2.53;45.72;98945.44;5110897;28;20103;-82
2022/03/07 10:49:32;;;;;;;29.80;16.55;;;;;;;2.61;46.65;98955.09;5112431;28;20480;-78
2022/03/07 10:51:57;;;;;;;23.17;15.18;;;;;;;2.65;46.71;98951.69;5108932;28;20032;-79
2022/03/07 10:54:23;;;;;;;23.25;12.73;;;;;;;2.72;45.54;98950.75;5107635;28;20012;-86
2022/03/07 10:56:55;;;;;;;15.18;8.88;;;;;;;2.76;45.41;98950.06;5109615;28;20023;-85
2022/03/07 10:59:32;;;;;;;16.35;8.38;;;;;;;2.76;45.48;98954.66;5109100;28;20062;-83
2022/03/07 11:02:06;;;;;;;29.55;14.95;;;;;;;2.78;46.15;98945.25;5108381;28;20111;-82
2022/03/07 11:04:34;;;;;;;17.80;10.80;;;;;;;2.83;46.61;98939.97;5109970;28;20031;-85
2022/03/07 11:07:00;;;;;;;45.08;18.50;;;;;;;2.87;46.74;98948.44;5108893;28;20084;-84
2022/03/07 11:09:27;;;;;;;21.42;11.52;;;;;;;2.92;46.42;98945.84;5091966;28;20028;-83
2022/03/07 11:11:54;;;;;;;17.48;10.32;;;;;;;2.92;46.58;98942.31;5108458;28;20027;-77
2022/03/07 11:14:20;;;;;;;17.55;10.75;;;;;;;2.95;47.07;98934.53;5109199;28;20069;-77
2022/03/07 11:16:47;;;;;;;14.15;9.13;;;;;;;3.06;46.71;98934.75;5109288;28;20066;-76